Time;durP1;ratioP1;P1;durP2;ratioP2;P2;SDS_P1;SDS_P2;PMS_P1;PMS_P2;Temp;Humidity;BMP_temperature;BMP_pressure;BME280_temperature;BME280_humidity;BME280_pressure;Samples;Min_cycle;Max_cycle;Signal;HPM_P1;HPM_P2
2023/08/16 00:02:03;;;;;;;0.17;0.17;;;;;;;;;;6214628;22;20016;-87
2023/08/16 00:04:29;;;;;;;0.35;0.35;;;;;;;;;;6215052;23;20045;-85
2023/08/16 00:06:55;;;;;;;0.30;0.30;;;;;;;;;;6189931;22;20638;-86
2023/08/16 00:09:21;;;;;;;0.20;0.20;;;;;;;;;;6214280;22;20020;-88
2023/08/16 00:11:48;;;;;;;0.10;0.10;;;;;;;;;;6214107;22;20091;-86
2023/08/16 00:14:14;;;;;;;0.10;0.10;;;;;;;;;;6214898;22;20016;-87
2023/08/16 00:16:43;;;;;;;0.15;0.15;;;;;;;;;;6240237;22;20354;-87
2023/08/16 00:19:09;;;;;;;0.10;0.10;;;;;;;;;;6214943;23;20027;-85
2023/08/16 00:21:36;;;;;;;0.15;0.15;;;;;;;;;;6214697;22;20023;-87
2023/08/16 00:24:04;;;;;;;0.17;0.17;;;;;;;;;;6240070;22;20012;-87
2023/08/16 00:26:30;;;;;;;0.22;0.22;;;;;;;;;;6214773;22;20022;-87
2023/08/16 00:28:56;;;;;;;0.10;0.10;;;;;;;;;;6240168;22;20065;-87
2023/08/16 00:31:23;;;;;;;0.10;0.10;;;;;;;;;;6214220;22;20068;-87
2023/08/16 00:33:49;;;;;;;0.10;0.10;;;;;;;;;;6214853;22;20027;-85
2023/08/16 00:36:15;;;;;;;0.10;0.10;;;;;;;;;;6214620;22;20360;-86
2023/08/16 00:38:44;;;;;;;0.10;0.10;;;;;;;;;;6214710;23;20023;-86
2023/08/16 00:41:13;;;;;;;0.10;0.10;;;;;;;;;;6239669;22;20095;-86
2023/08/16 00:43:40;;;;;;;0.20;0.20;;;;;;;;;;6214646;22;20065;-86
2023/08/16 00:46:10;;;;;;;0.20;0.20;;;;;;;;;;6214646;22;20023;-87
2023/08/16 00:48:37;;;;;;;0.20;0.20;;;;;;;;;;6214653;23;20020;-85
2023/08/16 00:51:04;;;;;;;0.20;0.20;;;;;;;;;;6214723;22;20016;-88
2023/08/16 00:53:31;;;;;;;0.20;0.20;;;;;;;;;;6214142;22;20020;-86
2023/08/16 00:56:00;;;;;;;0.10;0.10;;;;;;;;;;6214569;22;20020;-87
2023/08/16 00:58:26;;;;;;;0.20;0.20;;;;;;;;;;6216524;22;20020;-87
2023/08/16 01:00:52;;;;;;;0.20;0.20;;;;;;;;;;6219964;22;20020;-86
2023/08/16 01:03:18;;;;;;;0.30;0.30;;;;;;;;;;6219306;22;20072;-88
2023/08/16 01:05:44;;;;;;;0.30;0.30;;;;;;;;;;6219857;22;20598;-87
2023/08/16 01:08:11;;;;;;;0.30;0.30;;;;;;;;;;6219890;22;20011;-86
2023/08/16 01:10:58;;;;;;;0.13;0.13;;;;;;;;;;6245008;22;20022;-85
2023/08/16 01:13:26;;;;;;;0.28;0.28;;;;;;;;;;6219324;22;20357;-87
2023/08/16 01:15:53;;;;;;;0.22;0.22;;;;;;;;;;6219355;22;20027;-87
2023/08/16 01:18:20;;;;;;;0.20;0.20;;;;;;;;;;6194785;22;20094;-87
2023/08/16 01:20:48;;;;;;;0.20;0.20;;;;;;;;;;6219494;22;20018;-86
2023/08/16 01:23:25;;;;;;;0.25;0.25;;;;;;;;;;6219195;22;20350;-88
2023/08/16 01:26:00;;;;;;;0.30;0.30;;;;;;;;;;6219646;22;20020;-87
2023/08/16 01:28:25;;;;;;;;;;;;;;;;;;6220058;22;20079;-86
2023/08/16 01:30:52;;;;;;;0.20;0.20;;;;;;;;;;6244849;22;20219;-87
2023/08/16 01:33:18;;;;;;;0.22;0.22;;;;;;;;;;6219182;22;20020;-86
2023/08/16 01:35:44;;;;;;;0.35;0.35;;;;;;;;;;6244815;22;20098;-86
2023/08/16 01:38:13;;;;;;;0.30;0.30;;;;;;;;;;6219550;22;20024;-87
2023/08/16 01:40:42;;;;;;;0.10;0.10;;;;;;;;;;6244603;22;20020;-86
2023/08/16 01:43:10;;;;;;;0.20;0.20;;;;;;;;;;6219066;22;20011;-87
2023/08/16 01:45:37;;;;;;;0.20;0.20;;;;;;;;;;6219568;22;20023;-86
2023/08/16 01:48:03;;;;;;;0.20;0.20;;;;;;;;;;6219480;22;20012;-86
2023/08/16 01:50:29;;;;;;;0.20;0.20;;;;;;;;;;6219387;22;20060;-87
2023/08/16 01:52:56;;;;;;;0.10;0.10;;;;;;;;;;6218964;22;20016;-85
2023/08/16 01:55:22;;;;;;;0.20;0.20;;;;;;;;;;6244726;22;20079;-87
2023/08/16 01:57:48;;;;;;;0.25;0.25;;;;;;;;;;6219167;22;20342;-87
2023/08/16 02:00:15;;;;;;;0.10;0.10;;;;;;;;;;6214341;22;20023;-86
2023/08/16 02:02:43;;;;;;;0.20;0.20;;;;;;;;;;6213950;22;20012;-87
2023/08/16 02:05:09;;;;;;;0.10;0.10;;;;;;;;;;6239513;22;20013;-87
2023/08/16 02:07:35;;;;;;;0.20;0.20;;;;;;;;;;6214150;22;20185;-86
2023/08/16 02:10:01;;;;;;;0.20;0.20;;;;;;;;;;6214178;22;20069;-87
2023/08/16 02:12:27;;;;;;;0.20;0.20;;;;;;;;;;6213588;22;20048;-85
2023/08/16 02:14:53;;;;;;;0.20;0.20;;;;;;;;;;6214194;22;20095;-87
2023/08/16 02:17:19;;;;;;;0.30;0.30;;;;;;;;;;6239026;22;20491;-86
2023/08/16 02:19:45;;;;;;;0.20;0.20;;;;;;;;;;6214063;22;20020;-87
2023/08/16 02:22:11;;;;;;;0.20;0.20;;;;;;;;;;6238699;22;20441;-88
2023/08/16 02:24:37;;;;;;;0.20;0.20;;;;;;;;;;6214014;22;20100;-87
2023/08/16 02:27:03;;;;;;;0.30;0.30;;;;;;;;;;6214048;22;20023;-87
2023/08/16 02:29:29;;;;;;;0.20;0.20;;;;;;;;;;6214036;22;20023;-87
2023/08/16 02:31:55;;;;;;;0.20;0.20;;;;;;;;;;6213504;22;20020;-85
2023/08/16 02:34:22;;;;;;;0.30;0.30;;;;;;;;;;6240250;22;20022;-86
2023/08/16 02:36:49;;;;;;;0.13;0.13;;;;;;;;;;6240534;22;20522;-86
2023/08/16 02:39:15;;;;;;;0.20;0.20;;;;;;;;;;6240546;22;20087;-85
2023/08/16 02:41:41;;;;;;;0.28;0.28;;;;;;;;;;6240151;22;20097;-87
2023/08/16 02:44:07;;;;;;;0.22;0.22;;;;;;;;;;6215451;23;20012;-87
2023/08/16 02:46:34;;;;;;;0.20;0.20;;;;;;;;;;6240514;22;20020;-86
2023/08/16 02:49:00;;;;;;;0.30;0.30;;;;;;;;;;6215418;22;20065;-86
2023/08/16 02:51:26;;;;;;;0.28;0.28;;;;;;;;;;6215047;22;20389;-85
2023/08/16 02:53:52;;;;;;;0.20;0.20;;;;;;;;;;6215191;22;20020;-86
2023/08/16 02:56:18;;;;;;;0.30;0.30;;;;;;;;;;6215136;22;20072;-86
2023/08/16 02:58:44;;;;;;;0.20;0.20;;;;;;;;;;6215027;22;20024;-87
2023/08/16 03:01:10;;;;;;;0.22;0.22;;;;;;;;;;6215198;23;20012;-86
2023/08/16 03:03:36;;;;;;;0.20;0.20;;;;;;;;;;6215044;22;20413;-87
2023/08/16 03:06:03;;;;;;;0.20;0.20;;;;;;;;;;6215000;22;20081;-87
2023/08/16 03:08:29;;;;;;;0.40;0.40;;;;;;;;;;6215302;22;20027;-88
2023/08/16 03:10:55;;;;;;;0.30;0.30;;;;;;;;;;6240415;22;20481;-87
2023/08/16 03:13:21;;;;;;;0.30;0.30;;;;;;;;;;6214763;22;20016;-87
2023/08/16 03:15:47;;;;;;;0.10;0.10;;;;;;;;;;6215260;22;20016;-87
2023/08/16 03:18:13;;;;;;;0.20;0.20;;;;;;;;;;6240384;23;20342;-86
2023/08/16 03:20:40;;;;;;;0.20;0.20;;;;;;;;;;6215228;22;20342;-87
2023/08/16 03:23:06;;;;;;;0.20;0.20;;;;;;;;;;6239861;22;20022;-86
2023/08/16 03:25:32;;;;;;;0.20;0.20;;;;;;;;;;6215080;22;20065;-86
2023/08/16 03:27:58;;;;;;;0.20;0.20;;;;;;;;;;6214989;22;20013;-85
2023/08/16 03:30:24;;;;;;;0.20;0.20;;;;;;;;;;6240256;22;20446;-86
2023/08/16 03:32:50;;;;;;;0.20;0.20;;;;;;;;;;6214700;22;20022;-87
2023/08/16 03:35:16;;;;;;;0.20;0.20;;;;;;;;;;6215048;22;20096;-84
2023/08/16 03:37:42;;;;;;;0.20;0.20;;;;;;;;;;6214901;22;20100;-86
2023/08/16 03:40:09;;;;;;;0.10;0.10;;;;;;;;;;6240317;22;20019;-86
2023/08/16 03:42:35;;;;;;;0.13;0.13;;;;;;;;;;6214847;22;20051;-87
2023/08/16 03:45:01;;;;;;;0.10;0.10;;;;;;;;;;6214760;22;20442;-86
2023/08/16 03:47:29;;;;;;;0.20;0.20;;;;;;;;;;6215126;22;20020;-86
2023/08/16 03:49:56;;;;;;;0.20;0.20;;;;;;;;;;6214846;22;20366;-86
2023/08/16 03:52:22;;;;;;;0.15;0.15;;;;;;;;;;6214678;23;20023;-87
2023/08/16 03:54:48;;;;;;;0.20;0.20;;;;;;;;;;6214878;22;20346;-87
2023/08/16 03:57:14;;;;;;;0.28;0.28;;;;;;;;;;6214870;22;20020;-88
2023/08/16 03:59:40;;;;;;;0.10;0.10;;;;;;;;;;6250272;22;20024;-86
2023/08/16 04:02:06;;;;;;;0.10;0.10;;;;;;;;;;6214291;22;20023;-87
2023/08/16 04:04:32;;;;;;;0.13;0.13;;;;;;;;;;6239644;22;20016;-86
2023/08/16 04:06:59;;;;;;;0.10;0.10;;;;;;;;;;6214469;23;20454;-87
2023/08/16 04:09:25;;;;;;;0.30;0.30;;;;;;;;;;6214642;22;20016;-86
2023/08/16 04:11:52;;;;;;;0.20;0.20;;;;;;;;;;6239347;22;20020;-87
2023/08/16 04:14:18;;;;;;;0.17;0.17;;;;;;;;;;6239816;22;20016;-87
2023/08/16 04:16:44;;;;;;;0.20;0.20;;;;;;;;;;6239789;22;20390;-85
2023/08/16 04:19:10;;;;;;;0.20;0.20;;;;;;;;;;6214480;22;20012;-86
2023/08/16 04:21:38;;;;;;;0.30;0.30;;;;;;;;;;6214112;22;20012;-88
2023/08/16 04:24:04;;;;;;;0.30;0.30;;;;;;;;;;6214346;22;20323;-85
2023/08/16 04:26:33;;;;;;;0.30;0.30;;;;;;;;;;6214541;22;20020;-87
2023/08/16 04:28:59;;;;;;;0.13;0.13;;;;;;;;;;6239982;22;20016;-86
2023/08/16 04:31:26;;;;;;;0.25;0.25;;;;;;;;;;6214107;23;20020;-86
2023/08/16 04:33:52;;;;;;;0.20;0.20;;;;;;;;;;6239910;22;20462;-86
2023/08/16 04:36:24;;;;;;;0.20;0.20;;;;;;;;;;6214258;22;20016;-86
2023/08/16 04:38:50;;;;;;;0.20;0.20;;;;;;;;;;6214439;23;20403;-86
2023/08/16 04:41:16;;;;;;;0.20;0.20;;;;;;;;;;6214112;23;20016;-86
2023/08/16 04:43:42;;;;;;;0.20;0.20;;;;;;;;;;6214651;22;20016;-85
2023/08/16 04:46:08;;;;;;;0.30;0.30;;;;;;;;;;6215110;22;20069;-85
2023/08/16 04:48:34;;;;;;;0.30;0.30;;;;;;;;;;6214418;22;20027;-84
2023/08/16 04:51:00;;;;;;;0.17;0.17;;;;;;;;;;6214184;22;20016;-85
2023/08/16 04:53:27;;;;;;;0.30;0.30;;;;;;;;;;6214016;22;20346;-86
2023/08/16 04:55:53;;;;;;;0.30;0.30;;;;;;;;;;6213820;22;20016;-85
2023/08/16 04:58:19;;;;;;;0.13;0.13;;;;;;;;;;6214371;22;20540;-86
2023/08/16 05:00:45;;;;;;;0.40;0.40;;;;;;;;;;6239390;22;20023;-87
2023/08/16 05:03:11;;;;;;;0.30;0.30;;;;;;;;;;6214218;22;20012;-85
2023/08/16 05:05:37;;;;;;;0.20;0.20;;;;;;;;;;6214284;22;20467;-86
2023/08/16 05:08:03;;;;;;;0.10;0.10;;;;;;;;;;6214225;22;20012;-87
2023/08/16 05:10:29;;;;;;;0.28;0.28;;;;;;;;;;6214148;22;20012;-87
2023/08/16 05:12:55;;;;;;;0.20;0.20;;;;;;;;;;6239295;22;20016;-86
2023/08/16 05:15:21;;;;;;;0.10;0.10;;;;;;;;;;6214216;22;20012;-87
2023/08/16 05:17:47;;;;;;;0.20;0.20;;;;;;;;;;6213999;22;20476;-87
2023/08/16 05:20:13;;;;;;;0.20;0.20;;;;;;;;;;6239386;22;20019;-85
2023/08/16 05:22:39;;;;;;;0.28;0.28;;;;;;;;;;6239010;22;20070;-87
2023/08/16 05:25:06;;;;;;;0.22;0.22;;;;;;;;;;6214133;22;20016;-86
2023/08/16 05:27:33;;;;;;;0.20;0.20;;;;;;;;;;6239149;22;20023;-87
2023/08/16 05:29:59;;;;;;;0.20;0.20;;;;;;;;;;6214141;22;20511;-87
2023/08/16 05:32:25;;;;;;;0.25;0.25;;;;;;;;;;6213764;22;20028;-85
2023/08/16 05:34:53;;;;;;;0.30;0.30;;;;;;;;;;6239260;22;20016;-86
2023/08/16 05:37:19;;;;;;;0.30;0.30;;;;;;;;;;6213935;22;20017;-86
2023/08/16 05:39:46;;;;;;;0.20;0.20;;;;;;;;;;6213718;22;20055;-87
2023/08/16 05:42:12;;;;;;;0.20;0.20;;;;;;;;;;6213535;22;20020;-86
2023/08/16 05:44:39;;;;;;;0.20;0.20;;;;;;;;;;6214254;22;20012;-85
2023/08/16 05:47:05;;;;;;;0.10;0.10;;;;;;;;;;6213767;22;20027;-88
2023/08/16 05:49:31;;;;;;;0.30;0.30;;;;;;;;;;6214040;22;20023;-87
2023/08/16 05:51:58;;;;;;;0.20;0.20;;;;;;;;;;6213482;22;20094;-88
2023/08/16 05:54:24;;;;;;;0.25;0.25;;;;;;;;;;6213819;22;20023;-87
2023/08/16 05:56:52;;;;;;;0.10;0.10;;;;;;;;;;6214025;23;20047;-87
2023/08/16 05:59:18;;;;;;;0.30;0.30;;;;;;;;;;6213455;22;20438;-90
2023/08/16 06:01:44;;;;;;;0.20;0.20;;;;;;;;;;6239066;23;20346;-86
2023/08/16 06:04:10;;;;;;;0.20;0.20;;;;;;;;;;6213805;22;20012;-87
2023/08/16 06:06:38;;;;;;;0.20;0.20;;;;;;;;;;6238991;23;20380;-90
2023/08/16 06:09:05;;;;;;;0.10;0.10;;;;;;;;;;6214856;22;20077;-86
2023/08/16 06:11:34;;;;;;;0.30;0.30;;;;;;;;;;6240036;22;20016;-86
2023/08/16 06:14:24;;;;;;;0.10;0.10;;;;;;;;;;6215323;22;20515;-89
2023/08/16 06:16:50;;;;;;;0.20;0.20;;;;;;;;;;6215196;23;20098;-86
2023/08/16 06:19:16;;;;;;;0.13;0.13;;;;;;;;;;6215027;22;20023;-86
2023/08/16 06:21:42;;;;;;;0.20;0.20;;;;;;;;;;6214644;22;20020;-87
2023/08/16 06:24:10;;;;;;;0.20;0.20;;;;;;;;;;6240062;22;20023;-87
2023/08/16 06:26:36;;;;;;;0.10;0.10;;;;;;;;;;6214579;22;20020;-86
2023/08/16 06:29:02;;;;;;;0.10;0.10;;;;;;;;;;6214789;22;20020;-86
2023/08/16 06:31:28;;;;;;;0.10;0.10;;;;;;;;;;6239799;22;20462;-86
2023/08/16 06:33:54;;;;;;;0.22;0.22;;;;;;;;;;6214798;22;20020;-87
2023/08/16 06:36:20;;;;;;;0.17;0.17;;;;;;;;;;6214974;22;20024;-87
2023/08/16 06:38:46;;;;;;;0.30;0.30;;;;;;;;;;6214882;23;20346;-87
2023/08/16 06:41:14;;;;;;;0.10;0.10;;;;;;;;;;6214720;22;20016;-87
2023/08/16 06:43:40;;;;;;;0.10;0.10;;;;;;;;;;6215165;22;20065;-87
2023/08/16 06:46:06;;;;;;;0.17;0.17;;;;;;;;;;6215193;23;20020;-88
2023/08/16 06:48:32;;;;;;;0.20;0.20;;;;;;;;;;6215103;22;20465;-87
2023/08/16 06:50:58;;;;;;;0.10;0.10;;;;;;;;;;6215244;22;20027;-86
2023/08/16 06:53:27;;;;;;;0.20;0.20;;;;;;;;;;6213921;22;20023;-88
2023/08/16 06:56:22;;;;;;;0.10;0.10;;;;;;;;;;6190526;22;20063;-88
2023/08/16 06:58:50;;;;;;;0.10;0.10;;;;;;;;;;6240698;22;20068;-89
2023/08/16 07:01:16;;;;;;;0.10;0.10;;;;;;;;;;6219676;22;20072;-89
2023/08/16 07:04:11;;;;;;;0.20;0.20;;;;;;;;;;6220443;22;20012;-91
2023/08/16 07:06:38;;;;;;;0.20;0.20;;;;;;;;;;6220480;22;20064;-91
2023/08/16 07:09:04;;;;;;;0.08;0.08;;;;;;;;;;6247461;22;20098;-90
2023/08/16 07:11:30;;;;;;;0.20;0.20;;;;;;;;;;6223230;22;20028;-92
2023/08/16 07:13:59;;;;;;;0.10;0.10;;;;;;;;;;6248793;22;20027;-92
2023/08/16 07:16:25;;;;;;;0.00;0.00;;;;;;;;;;6224576;22;20354;-91
2023/08/16 07:18:53;;;;;;;0.20;0.20;;;;;;;;;;6248739;22;20018;-91
2023/08/16 07:21:19;;;;;;;0.10;0.10;;;;;;;;;;6247291;22;20016;-91
2023/08/16 07:23:45;;;;;;;0.20;0.20;;;;;;;;;;6220241;22;20012;-90
2023/08/16 07:26:14;;;;;;;0.17;0.17;;;;;;;;;;6220941;22;20023;-88
2023/08/16 07:28:40;;;;;;;0.20;0.20;;;;;;;;;;6219874;22;20020;-87
2023/08/16 07:31:11;;;;;;;0.10;0.10;;;;;;;;;;6219718;22;20140;-89
2023/08/16 07:33:37;;;;;;;0.00;0.00;;;;;;;;;;6244994;22;20327;-88
2023/08/16 07:36:04;;;;;;;0.10;0.10;;;;;;;;;;6219791;22;20383;-90
2023/08/16 07:38:33;;;;;;;0.17;0.17;;;;;;;;;;6272896;22;20446;-89
2023/08/16 07:40:59;;;;;;;0.10;0.10;;;;;;;;;;6219674;22;20011;-89
2023/08/16 07:43:25;;;;;;;0.10;0.10;;;;;;;;;;6219526;22;20016;-88
2023/08/16 07:45:52;;;;;;;0.10;0.10;;;;;;;;;;6219911;22;20041;-88
2023/08/16 07:48:18;;;;;;;0.10;0.10;;;;;;;;;;6220639;22;20018;-91
2023/08/16 07:50:55;;;;;;;0.10;0.10;;;;;;;;;;6245924;22;20016;-91
2023/08/16 07:53:22;;;;;;;0.20;0.20;;;;;;;;;;6220349;22;20011;-90
2023/08/16 07:55:50;;;;;;;0.20;0.20;;;;;;;;;;6221632;22;20011;-92
2023/08/16 07:58:16;;;;;;;0.10;0.10;;;;;;;;;;6222598;22;20016;-88
2023/08/16 08:00:42;;;;;;;0.10;0.10;;;;;;;;;;6214523;22;20100;-89
2023/08/16 08:03:12;;;;;;;0.10;0.10;;;;;;;;;;6214094;22;20012;-90
2023/08/16 08:05:38;;;;;;;0.20;0.20;;;;;;;;;;6215038;22;20013;-89
2023/08/16 08:08:06;;;;;;;0.10;0.10;;;;;;;;;;6214683;22;20450;-88
2023/08/16 08:10:32;;;;;;;0.03;0.03;;;;;;;;;;6214953;22;20095;-89
2023/08/16 08:12:58;;;;;;;0.20;0.20;;;;;;;;;;6215382;22;20677;-90
2023/08/16 08:15:25;;;;;;;0.35;0.35;;;;;;;;;;6215883;22;20023;-89
2023/08/16 08:17:51;;;;;;;0.08;0.08;;;;;;;;;;6215404;22;20391;-89
2023/08/16 08:20:18;;;;;;;0.10;0.10;;;;;;;;;;6215946;22;20072;-89
2023/08/16 08:22:44;;;;;;;0.10;0.10;;;;;;;;;;6214553;22;20012;-92
2023/08/16 08:25:10;;;;;;;0.05;0.05;;;;;;;;;;6215413;22;20449;-87
2023/08/16 08:27:36;;;;;;;0.00;0.00;;;;;;;;;;6240124;22;20024;-89
2023/08/16 08:30:03;;;;;;;0.10;0.10;;;;;;;;;;6215568;23;20434;-88
2023/08/16 08:32:34;;;;;;;0.30;0.30;;;;;;;;;;6214858;23;20042;-87
2023/08/16 08:35:16;;;;;;;0.10;0.10;;;;;;;;;;6214551;22;20055;-89
2023/08/16 08:37:43;;;;;;;0.10;0.10;;;;;;;;;;6215199;23;20016;-89
2023/08/16 08:40:09;;;;;;;0.08;0.08;;;;;;;;;;6215189;22;20012;-91
2023/08/16 08:42:36;;;;;;;0.10;0.10;;;;;;;;;;6214165;22;20016;-88
2023/08/16 08:45:02;;;;;;;0.20;0.20;;;;;;;;;;6214528;22;20024;-89
2023/08/16 08:47:29;;;;;;;0.10;0.10;;;;;;;;;;6214549;22;20020;-88
2023/08/16 08:49:56;;;;;;;0.10;0.10;;;;;;;;;;6214677;22;20023;-87
2023/08/16 08:52:22;;;;;;;0.10;0.10;;;;;;;;;;6239658;22;20020;-87
2023/08/16 08:58:13;;;;;;;0.00;0.00;;;;;;;;;;6251651;23;20027;-89
2023/08/16 09:00:39;;;;;;;0.10;0.10;;;;;;;;;;6214351;22;20016;-88
2023/08/16 09:06:00;;;;;;;0.10;0.10;;;;;;;;;;6239925;23;20024;-88
2023/08/16 09:08:27;;;;;;;0.10;0.10;;;;;;;;;;6214668;22;20027;-92
2023/08/16 09:10:54;;;;;;;0.10;0.10;;;;;;;;;;6214438;22;20016;-88
2023/08/16 09:13:21;;;;;;;0.10;0.10;;;;;;;;;;6213930;22;20065;-88
2023/08/16 09:15:47;;;;;;;0.00;0.00;;;;;;;;;;6239558;22;20063;-87
2023/08/16 09:18:14;;;;;;;0.03;0.03;;;;;;;;;;6239688;22;20012;-86
2023/08/16 09:20:45;;;;;;;0.10;0.10;;;;;;;;;;6214558;23;20012;-86
2023/08/16 09:23:13;;;;;;;0.10;0.10;;;;;;;;;;6239339;23;20022;-86
2023/08/16 09:25:39;;;;;;;0.00;0.00;;;;;;;;;;6214287;23;20012;-87
2023/08/16 09:28:09;;;;;;;0.10;0.10;;;;;;;;;;6214318;22;20017;-87
2023/08/16 09:30:35;;;;;;;0.10;0.10;;;;;;;;;;6214204;22;20016;-87
2023/08/16 09:33:01;;;;;;;0.10;0.10;;;;;;;;;;6214346;22;20441;-86
2023/08/16 09:35:31;;;;;;;0.10;0.10;;;;;;;;;;6214256;22;20069;-86
2023/08/16 09:37:59;;;;;;;0.10;0.10;;;;;;;;;;6213947;22;20048;-85
2023/08/16 09:40:25;;;;;;;0.10;0.10;;;;;;;;;;6189460;22;20039;-85
2023/08/16 09:42:53;;;;;;;0.10;0.10;;;;;;;;;;6213165;22;20362;-88
2023/08/16 09:45:28;;;;;;;0.08;0.08;;;;;;;;;;6214487;23;20422;-86
2023/08/16 09:47:54;;;;;;;0.00;0.00;;;;;;;;;;6239485;22;20398;-86
2023/08/16 09:50:22;;;;;;;0.05;0.05;;;;;;;;;;6189247;22;20095;-85
2023/08/16 09:52:50;;;;;;;0.10;0.10;;;;;;;;;;6213694;23;20027;-85
2023/08/16 09:55:30;;;;;;;0.20;0.20;;;;;;;;;;6214070;22;20024;-87
2023/08/16 09:57:59;;;;;;;0.10;0.10;;;;;;;;;;6213985;22;20024;-86
2023/08/16 10:00:27;;;;;;;0.10;0.10;;;;;;;;;;6213891;22;20016;-86
2023/08/16 10:02:53;;;;;;;0.10;0.10;;;;;;;;;;6239645;22;20016;-88
2023/08/16 10:05:25;;;;;;;0.10;0.10;;;;;;;;;;6189205;22;20323;-87
2023/08/16 10:07:52;;;;;;;0.00;0.00;;;;;;;;;;6213960;23;20028;-86
2023/08/16 10:10:18;;;;;;;0.10;0.10;;;;;;;;;;6213606;22;20016;-86
2023/08/16 10:12:46;;;;;;;0.10;0.10;;;;;;;;;;6213480;22;20354;-85
2023/08/16 10:15:12;;;;;;;0.00;0.00;;;;;;;;;;6214072;22;20446;-85
2023/08/16 10:17:39;;;;;;;0.00;0.00;;;;;;;;;;6213820;22;20016;-88
2023/08/16 10:20:12;;;;;;;0.10;0.10;;;;;;;;;;6213953;22;20012;-89
2023/08/16 10:22:39;;;;;;;0.10;0.10;;;;;;;;;;6213453;23;20017;-88
2023/08/16 10:25:11;;;;;;;0.10;0.10;;;;;;;;;;6214125;22;20069;-88
2023/08/16 10:27:38;;;;;;;0.10;0.10;;;;;;;;;;6239025;23;20027;-90
2023/08/16 10:30:09;;;;;;;0.10;0.10;;;;;;;;;;6239160;22;20021;-87
2023/08/16 10:36:01;;;;;;;0.10;0.10;;;;;;;;;;6252281;23;20384;-93
2023/08/16 10:38:43;;;;;;;0.10;0.10;;;;;;;;;;6195997;23;20020;-94
2023/08/16 10:41:12;;;;;;;0.10;0.10;;;;;;;;;;6219278;22;20118;-91
2023/08/16 10:43:39;;;;;;;0.00;0.00;;;;;;;;;;6221072;22;20020;-93
2023/08/16 10:46:05;;;;;;;0.00;0.00;;;;;;;;;;6196431;22;20016;-93
2023/08/16 10:48:35;;;;;;;0.00;0.00;;;;;;;;;;6221993;22;20016;-94
2023/08/16 10:51:06;;;;;;;0.10;0.10;;;;;;;;;;6223961;23;20023;-96
2023/08/16 10:53:34;;;;;;;0.10;0.10;;;;;;;;;;6222978;22;20019;-96
2023/08/16 10:56:06;;;;;;;0.10;0.10;;;;;;;;;;6226407;22;20033;-93
2023/08/16 10:58:43;;;;;;;0.10;0.10;;;;;;;;;;6225497;22;20008;-94
2023/08/16 11:01:32;;;;;;;0.10;0.10;;;;;;;;;;6251722;23;20307;-96
2023/08/16 11:04:02;;;;;;;0.10;0.10;;;;;;;;;;6225438;23;20506;-95
2023/08/16 11:06:32;;;;;;;0.20;0.20;;;;;;;;;;6226970;23;20020;-94
2023/08/16 11:09:12;;;;;;;0.20;0.20;;;;;;;;;;6227449;22;20047;-93
2023/08/16 11:11:48;;;;;;;0.10;0.10;;;;;;;;;;6222780;23;20391;-93
2023/08/16 11:14:15;;;;;;;0.10;0.10;;;;;;;;;;6221251;23;20020;-94
2023/08/16 11:16:42;;;;;;;0.10;0.10;;;;;;;;;;6221383;22;20027;-93
2023/08/16 11:19:11;;;;;;;0.00;0.00;;;;;;;;;;6201245;22;20017;-95
2023/08/16 11:21:38;;;;;;;0.10;0.10;;;;;;;;;;6249126;22;20019;-94
2023/08/16 11:24:05;;;;;;;0.20;0.20;;;;;;;;;;6249181;22;20450;-95
2023/08/16 11:26:38;;;;;;;0.10;0.10;;;;;;;;;;6218771;22;20020;-93
2023/08/16 11:29:05;;;;;;;0.10;0.10;;;;;;;;;;6245534;23;20480;-93
2023/08/16 11:31:31;;;;;;;0.10;0.10;;;;;;;;;;6222261;22;20353;-95
2023/08/16 11:33:57;;;;;;;0.00;0.00;;;;;;;;;;6248953;22;20098;-95
2023/08/16 11:36:25;;;;;;;0.00;0.00;;;;;;;;;;6225894;22;20043;-96
2023/08/16 11:38:52;;;;;;;0.05;0.05;;;;;;;;;;6222635;22;20016;-95
2023/08/16 11:41:19;;;;;;;0.00;0.00;;;;;;;;;;6221869;23;20024;-88
2023/08/16 11:43:45;;;;;;;0.00;0.00;;;;;;;;;;6220359;22;20012;-92
2023/08/16 11:46:11;;;;;;;0.00;0.00;;;;;;;;;;6220353;22;20028;-90
2023/08/16 11:48:38;;;;;;;0.00;0.00;;;;;;;;;;6219646;22;20023;-93
2023/08/16 11:51:04;;;;;;;0.10;0.10;;;;;;;;;;6221022;23;20562;-95
2023/08/16 11:53:35;;;;;;;0.17;0.17;;;;;;;;;;6219181;22;20044;-95
2023/08/16 11:56:02;;;;;;;0.00;0.00;;;;;;;;;;6220597;22;20023;-92
2023/08/16 11:58:28;;;;;;;0.00;0.00;;;;;;;;;;6219867;22;20020;-94
2023/08/16 12:01:02;;;;;;;0.10;0.10;;;;;;;;;;6218862;22;20099;-93
2023/08/16 12:03:32;;;;;;;0.20;0.20;;;;;;;;;;6217682;23;20012;-93
2023/08/16 12:06:04;;;;;;;0.00;0.00;;;;;;;;;;6219398;22;20335;-92
2023/08/16 12:08:30;;;;;;;0.10;0.10;;;;;;;;;;6219780;23;20013;-95
2023/08/16 12:11:02;;;;;;;0.10;0.10;;;;;;;;;;6245724;22;20509;-92
2023/08/16 12:13:29;;;;;;;0.10;0.10;;;;;;;;;;6244837;22;20462;-93
2023/08/16 12:15:55;;;;;;;0.05;0.05;;;;;;;;;;6223457;22;20016;-94
2023/08/16 12:18:22;;;;;;;0.10;0.10;;;;;;;;;;6225433;22;20024;-94
2023/08/16 12:20:53;;;;;;;0.00;0.00;;;;;;;;;;6250555;22;20087;-94
2023/08/16 12:23:20;;;;;;;0.10;0.10;;;;;;;;;;6222630;22;20024;-94
2023/08/16 12:25:46;;;;;;;0.08;0.08;;;;;;;;;;6220463;22;20020;-92
2023/08/16 12:28:15;;;;;;;0.00;0.00;;;;;;;;;;6242252;22;20019;-93
2023/08/16 12:30:41;;;;;;;0.10;0.10;;;;;;;;;;6242111;23;20016;-93
2023/08/16 12:33:12;;;;;;;0.00;0.00;;;;;;;;;;6216873;22;20391;-93
2023/08/16 12:35:39;;;;;;;0.10;0.10;;;;;;;;;;6218638;22;20020;-91
2023/08/16 12:38:05;;;;;;;0.10;0.10;;;;;;;;;;6218970;22;20020;-94
2023/08/16 12:40:32;;;;;;;0.10;0.10;;;;;;;;;;6219221;22;20403;-95
2023/08/16 12:43:00;;;;;;;0.00;0.00;;;;;;;;;;6197121;23;20016;-93
2023/08/16 12:45:36;;;;;;;0.20;0.20;;;;;;;;;;6223314;22;20020;-89
2023/08/16 12:48:02;;;;;;;0.20;0.20;;;;;;;;;;6218088;23;20080;-94
2023/08/16 12:50:28;;;;;;;0.00;0.00;;;;;;;;;;6223263;22;20098;-91
2023/08/16 12:52:54;;;;;;;0.00;0.00;;;;;;;;;;6215571;22;20083;-90
2023/08/16 12:55:21;;;;;;;0.00;0.00;;;;;;;;;;6244875;22;20016;-93
2023/08/16 12:57:47;;;;;;;0.10;0.10;;;;;;;;;;6219477;22;20514;-95
2023/08/16 13:00:16;;;;;;;0.13;0.13;;;;;;;;;;6245085;22;20016;-90
2023/08/16 13:02:42;;;;;;;0.10;0.10;;;;;;;;;;6214473;22;20048;-92
2023/08/16 13:05:09;;;;;;;0.10;0.10;;;;;;;;;;6215721;22;20016;-91
2023/08/16 13:07:36;;;;;;;0.00;0.00;;;;;;;;;;6216725;22;20069;-90
2023/08/16 13:10:04;;;;;;;0.08;0.08;;;;;;;;;;6221022;22;20454;-93
2023/08/16 13:12:30;;;;;;;0.10;0.10;;;;;;;;;;6219310;22;20196;-96
2023/08/16 13:14:56;;;;;;;0.10;0.10;;;;;;;;;;6218403;22;20094;-94
2023/08/16 13:17:26;;;;;;;0.00;0.00;;;;;;;;;;6217473;22;20395;-91
2023/08/16 13:19:53;;;;;;;0.10;0.10;;;;;;;;;;6218667;22;20012;-92
2023/08/16 13:22:19;;;;;;;0.05;0.05;;;;;;;;;;6220974;22;20012;-92
2023/08/16 13:24:45;;;;;;;0.05;0.05;;;;;;;;;;6221914;22;20065;-92
2023/08/16 13:27:12;;;;;;;0.03;0.03;;;;;;;;;;6220017;22;20020;-93
2023/08/16 13:29:38;;;;;;;0.10;0.10;;;;;;;;;;6219445;22;20020;-94
2023/08/16 13:32:04;;;;;;;0.00;0.00;;;;;;;;;;6223029;22;20083;-95
2023/08/16 13:34:30;;;;;;;0.10;0.10;;;;;;;;;;6218636;22;20020;-87
2023/08/16 13:36:56;;;;;;;0.10;0.10;;;;;;;;;;6240161;22;20016;-88
2023/08/16 13:39:23;;;;;;;0.20;0.20;;;;;;;;;;6214437;22;20216;-87
2023/08/16 13:41:49;;;;;;;0.03;0.03;;;;;;;;;;6214388;22;20035;-89
2023/08/16 13:44:15;;;;;;;0.00;0.00;;;;;;;;;;6215409;22;20479;-89
2023/08/16 13:46:41;;;;;;;0.00;0.00;;;;;;;;;;6214749;22;20099;-87
2023/08/16 13:49:07;;;;;;;0.20;0.20;;;;;;;;;;6214189;22;20052;-89
2023/08/16 13:51:33;;;;;;;0.00;0.00;;;;;;;;;;6214617;22;20016;-92
2023/08/16 13:54:00;;;;;;;0.00;0.00;;;;;;;;;;6214730;22;20016;-88
2023/08/16 13:56:27;;;;;;;0.10;0.10;;;;;;;;;;6239892;22;20023;-88
2023/08/16 13:58:54;;;;;;;0.13;0.13;;;;;;;;;;6240986;22;20016;-87
2023/08/16 14:01:20;;;;;;;0.03;0.03;;;;;;;;;;6244491;22;20463;-89
2023/08/16 14:03:46;;;;;;;0.50;0.40;;;;;;;;;;6219334;22;20345;-88
2023/08/16 14:06:12;;;;;;;0.10;0.10;;;;;;;;;;6244545;22;20458;-85
2023/08/16 14:08:38;;;;;;;0.10;0.10;;;;;;;;;;6218610;22;20040;-86
2023/08/16 14:11:07;;;;;;;0.10;0.10;;;;;;;;;;6219073;22;20450;-85
2023/08/16 14:13:33;;;;;;;0.00;0.00;;;;;;;;;;6218888;22;20023;-89
2023/08/16 14:16:00;;;;;;;0.08;0.08;;;;;;;;;;6219268;22;20346;-87
2023/08/16 14:18:26;;;;;;;0.00;0.00;;;;;;;;;;6219114;22;20454;-85
2023/08/16 14:20:52;;;;;;;0.10;0.10;;;;;;;;;;6219045;22;20019;-88
2023/08/16 14:23:19;;;;;;;0.03;0.03;;;;;;;;;;6218810;22;20016;-89
2023/08/16 14:25:49;;;;;;;0.10;0.10;;;;;;;;;;6219477;22;20023;-88
2023/08/16 14:28:25;;;;;;;0.10;0.10;;;;;;;;;;6244499;22;20041;-88
2023/08/16 14:30:52;;;;;;;0.20;0.20;;;;;;;;;;6220325;22;20068;-88
2023/08/16 14:33:18;;;;;;;0.10;0.10;;;;;;;;;;6220048;22;20019;-87
2023/08/16 14:35:46;;;;;;;0.00;0.00;;;;;;;;;;6220170;22;20019;-87
2023/08/16 14:38:13;;;;;;;0.00;0.00;;;;;;;;;;6220371;22;20096;-89
2023/08/16 14:40:39;;;;;;;0.10;0.10;;;;;;;;;;6220711;22;20016;-89
2023/08/16 14:43:06;;;;;;;0.10;0.10;;;;;;;;;;6219860;22;20431;-87
2023/08/16 14:45:32;;;;;;;0.10;0.10;;;;;;;;;;6220996;22;20020;-88
2023/08/16 14:47:59;;;;;;;0.05;0.05;;;;;;;;;;6220318;22;20016;-87
2023/08/16 14:50:26;;;;;;;0.00;0.00;;;;;;;;;;6245888;22;20016;-88
2023/08/16 14:52:53;;;;;;;0.10;0.10;;;;;;;;;;6220358;22;20079;-88
2023/08/16 14:55:20;;;;;;;0.08;0.08;;;;;;;;;;6245991;22;20022;-88